Latest Weather Observations for Low Rocky Point

IDT60801

Issued at 8:35 pm EST Wednesday 20 August 2014 (issued every 30 minutes, with the page automatically refreshed every 10 minutes)

About weather observations | Map of weather stations | Latest weather observations for TAS | Other Formats
Station Details ID: 097080 Name: LOW ROCKY POINT Lat: -42.98 Lon: 145.50 Height: 34.0 m
Data from the previous 72 hours. | See also: Recent months at Low Rocky Point
Date/Time
EST
Temp
°C
App
Temp
°C
Dew
Point
Rel
Hum
%
Delta-T
°C
Wind Press
QNH
hPa
Press
MSL
hPa
Rain
since 9 am
mm
Dir
 
Spd
km/h
Gust
km/h
Spd
kts
Gust
kts
20/08:30pm 8.5 5.4 5.6 82 1.3 S 11 13 6 7 1029.6 - 0.4
20/08:00pm 9.4 6.1 6.5 82 1.3 S 13 17 7 9 1029.5 1029.6 0.4
20/07:30pm 9.0 5.7 6.4 84 1.2 S 13 17 7 9 1029.3 - 0.4
20/07:00pm 8.2 4.8 5.7 84 1.1 SSE 13 19 7 10 1029.0 1029.1 0.4
20/06:30pm 8.2 4.7 5.5 83 1.2 SSE 13 15 7 8 1028.8 - 0.4
20/06:00pm 8.5 5.3 5.3 80 1.4 S 11 15 6 8 1028.5 1028.6 0.4
20/05:30pm 9.7 6.7 6.2 79 1.6 S 11 15 6 8 1028.2 - 0.4
20/05:00pm 10.8 7.7 7.1 78 1.8 S 13 17 7 9 1028.0 1028.1 0.4
20/04:30pm 11.4 8.7 7.3 76 2.0 S 11 13 6 7 1027.7 - 0.4
20/04:00pm 12.4 10.6 8.1 75 2.1 S 7 13 4 7 1027.6 1027.7 0.4
20/03:30pm 11.7 9.1 7.6 76 2.0 S 11 15 6 8 1027.5 - 0.4
20/03:00pm 12.8 10.6 9.3 79 1.8 S 11 13 6 7 1027.3 1027.4 0.4
20/02:30pm 12.6 10.6 10.0 84 1.3 SSE 11 13 6 7 1027.2 - 0.4
20/02:00pm 12.6 10.4 10.8 89 0.9 SSE 13 17 7 9 1027.2 1027.3 0.4
20/01:30pm 12.2 10.9 11.1 93 0.6 SSE 9 13 5 7 1027.2 - 0.4
20/01:00pm 12.1 10.9 11.5 96 0.3 SSE 9 15 5 8 1027.2 1027.3 0.4
20/12:30pm 10.7 9.1 10.2 97 0.3 S 9 13 5 7 1027.2 - 0.4
20/12:00pm 11.5 10.6 11.3 99 0.1 WNW 7 11 4 6 1027.3 1027.4 0.4
20/11:30am 10.3 9.0 10.1 99 0.1 WNW 7 9 4 5 1027.5 - 0.4
20/11:00am 9.7 8.3 9.6 99 0.0 WNW 7 9 4 5 1027.5 1027.6 0.4
20/10:30am 10.4 8.4 10.2 99 0.1 N 11 13 6 7 1027.4 - 0.2
20/10:00am 9.0 8.8 8.9 99 0.0 WNW 0 6 0 3 1027.3 1027.4 0.2
20/09:30am 9.1 6.8 9.0 99 0.0 NNE 11 15 6 8 1027.0 - 0.0
20/09:00am 8.6 6.2 8.5 99 0.0 NNE 11 17 6 9 1026.8 1026.9 1.4
20/08:30am 7.1 3.6 7.0 99 0.0 NNE 15 20 8 11 1026.6 - 1.4
20/08:00am 6.6 2.6 6.5 99 0.0 NNE 17 20 9 11 1026.3 1026.4 1.4
20/07:30am 5.9 1.7 5.8 99 0.0 NNE 17 20 9 11 1026.0 - 1.4
20/07:00am 6.3 2.2 6.2 99 0.0 NNE 17 19 9 10 1025.8 1025.9 1.4
20/06:30am 6.5 3.2 6.4 99 0.0 NNE 13 15 7 8 1025.4 - 1.4
20/06:00am 6.4 2.7 6.3 99 0.0 NNE 15 17 8 9 1025.2 1025.3 1.0
20/05:30am 5.3 1.4 5.2 99 0.0 NNE 15 19 8 10 1025.1 - 1.0
20/05:00am 5.9 2.5 5.8 99 0.0 NNE 13 15 7 8 1025.1 1025.2 1.0
20/04:30am 5.4 1.1 5.3 99 0.0 NNE 17 19 9 10 1025.0 - 1.0
20/04:00am 5.6 1.7 5.5 99 0.0 N 15 17 8 9 1024.9 1025.0 1.0
20/03:30am 5.7 1.4 5.4 98 0.1 NNE 17 19 9 10 1025.0 - 1.0
20/03:00am 6.3 2.9 6.0 98 0.1 N 13 15 7 8 1025.0 1025.1 1.0
20/02:30am 6.4 2.7 6.1 98 0.1 NNE 15 15 8 8 1025.0 - 1.0
20/02:00am 6.7 4.1 6.3 97 0.2 NNE 9 11 5 6 1025.1 1025.2 1.0
20/01:30am 6.8 3.8 6.2 96 0.3 N 11 13 6 7 1025.1 - 1.0
20/01:00am 7.0 4.1 6.4 96 0.3 N 11 15 6 8 1025.1 1025.2 1.0
20/12:30am 6.8 3.0 5.9 94 0.4 N 15 17 8 9 1024.9 - 1.0
20/12:00am 7.4 5.4 6.2 92 0.5 NNW 6 11 3 6 1024.8 1024.9 1.0
 
Date/Time
EST
Temp
°C
App
Temp
°C
Dew
Point
Rel
Hum
%
Delta-T
°C
Wind Press
QNH
hPa
Press
MSL
hPa
Rain
since 9 am
mm
Dir
 
Spd
km/h
Gust
km/h
Spd
kts
Gust
kts
19/11:30pm 7.4 5.3 6.0 91 0.6 NW 6 13 3 7 1024.8 - 1.0
19/11:00pm 8.2 6.3 6.7 90 0.7 N 6 9 3 5 1024.7 1024.8 0.2
19/10:30pm 8.4 5.5 6.5 88 0.9 NW 11 15 6 8 1024.7 - 0.2
19/10:00pm 8.2 5.2 6.0 86 1.0 W 11 15 6 8 1024.8 1024.9 0.2
19/09:30pm 8.7 4.9 5.8 82 1.3 WSW 15 28 8 15 1024.9 - 0.2
19/09:00pm 9.1 4.9 5.7 79 1.5 W 17 22 9 12 1024.6 1024.7 0.0
19/08:30pm 9.3 5.5 6.0 80 1.5 W 15 19 8 10 1024.7 - 0.0
19/08:00pm 9.4 4.9 5.9 79 1.6 W 19 24 10 13 1024.6 1024.7 0.0
19/07:30pm 9.3 4.9 6.6 83 1.3 W 19 22 10 12 1024.4 - 0.0
19/07:00pm 9.4 4.0 6.5 82 1.3 W 24 32 13 17 1024.3 1024.4 0.0
19/06:30pm 9.5 4.4 6.2 80 1.5 W 22 28 12 15 1024.0 - 0.0
19/06:00pm 9.3 4.8 6.0 80 1.5 WNW 19 24 10 13 1023.7 1023.8 0.0
19/05:30pm 9.5 4.8 5.9 78 1.7 W 20 26 11 14 1023.7 - 0.0
19/05:00pm 9.7 5.6 6.2 79 1.6 W 17 22 9 12 1023.6 1023.7 0.0
19/04:30pm 10.0 5.7 7.1 82 1.4 WSW 19 26 10 14 1023.6 - 0.0
19/04:00pm 9.5 4.0 5.7 77 1.7 W 24 35 13 19 1023.6 1023.7 0.0
19/03:30pm 10.5 5.7 5.7 72 2.2 WNW 20 24 11 13 1023.4 - 0.0
19/03:00pm 11.0 5.5 5.7 70 2.4 W 24 30 13 16 1023.4 1023.5 0.0
19/02:30pm 10.5 5.1 6.5 76 1.9 W 24 30 13 16 1023.4 - 0.0
19/02:00pm 10.1 5.1 6.4 78 1.7 WSW 22 30 12 16 1023.4 1023.5 0.0
19/01:30pm 12.3 7.1 7.4 72 2.4 W 24 35 13 19 1023.4 - 0.0
19/01:00pm 11.6 5.2 6.9 73 2.2 W 30 33 16 18 1023.6 1023.7 0.0
19/12:30pm 11.3 4.4 6.6 73 2.2 W 32 43 17 23 1023.6 - 0.0
19/12:00pm 10.7 4.8 5.9 72 2.2 W 26 32 14 17 1024.0 1024.1 0.0
19/11:30am 10.9 4.9 7.2 78 1.8 W 28 35 15 19 1024.3 - 0.0
19/11:00am 10.4 5.4 8.0 85 1.2 W 24 30 13 16 1024.3 1024.4 0.0
19/10:30am 10.3 5.9 9.1 92 0.6 W 22 28 12 15 1024.3 - 0.0
19/10:00am 9.7 3.8 9.1 96 0.3 W 30 35 16 19 1024.2 1024.3 0.0
19/09:30am 9.6 6.6 9.3 98 0.1 WNW 15 20 8 11 1024.2 - 0.0
19/09:00am 8.7 7.1 8.6 99 0.0 NNW 7 11 4 6 1024.4 1024.5 1.6
19/08:30am 8.3 4.7 8.2 99 0.0 N 17 20 9 11 1024.2 - 1.6
19/08:00am 6.9 2.9 6.8 99 0.0 N 17 20 9 11 1024.0 1024.1 0.8
19/07:30am 6.5 2.0 6.2 98 0.1 N 19 22 10 12 1023.8 - 0.8
19/07:00am 6.6 2.5 6.2 97 0.2 N 17 20 9 11 1023.6 1023.7 0.8
19/06:30am 6.7 3.3 6.1 96 0.3 N 13 19 7 10 1023.5 - 0.6
19/06:00am 7.3 3.6 6.4 94 0.4 N 15 20 8 11 1023.4 1023.5 0.6
19/05:30am 7.2 4.5 5.8 91 0.6 NNW 9 15 5 8 1023.5 - 0.4
19/05:00am 7.0 2.1 5.2 88 0.8 N 20 22 11 12 1023.2 1023.3 0.0
19/04:30am 6.6 2.1 4.1 84 1.1 N 17 22 9 12 1023.2 - 0.0
19/04:00am 6.5 1.9 3.8 83 1.1 N 17 20 9 11 1023.4 1023.5 0.0
19/03:30am 6.8 2.6 3.9 82 1.2 N 15 17 8 9 1023.4 - 0.0
19/03:00am 7.2 2.4 4.5 83 1.2 N 19 20 10 11 1023.4 1023.5 0.0
19/02:30am 6.9 2.4 4.2 83 1.2 N 17 20 9 11 1023.7 - 0.0
19/02:00am 7.0 3.0 4.7 85 1.0 N 15 17 8 9 1024.2 1024.3 0.0
19/01:30am 6.1 1.5 3.9 86 0.9 N 17 17 9 9 1024.1 - 0.0
19/01:00am 6.0 1.0 3.8 86 0.9 N 19 20 10 11 1024.2 1024.3 0.0
19/12:30am 6.0 1.0 3.7 85 1.0 N 19 20 10 11 1024.2 - 0.0
19/12:00am 6.1 1.5 3.8 85 1.0 NNE 17 19 9 10 1024.3 1024.4 0.0
 
Date/Time
EST
Temp
°C
App
Temp
°C
Dew
Point
Rel
Hum
%
Delta-T
°C
Wind Press
QNH
hPa
Press
MSL
hPa
Rain
since 9 am
mm
Dir
 
Spd
km/h
Gust
km/h
Spd
kts
Gust
kts
18/11:30pm 6.4 1.8 3.7 83 1.1 NNE 17 19 9 10 1024.3 - 0.0
18/11:00pm 7.0 4.0 4.1 82 1.2 NNE 9 11 5 6 1024.4 1024.5 0.0
18/10:30pm 7.4 5.4 4.2 80 1.4 NNE 4 6 2 3 1024.4 - 0.0
18/10:00pm 7.4 4.8 4.0 79 1.5 NNE 7 9 4 5 1024.5 1024.6 0.0
18/09:30pm 8.2 5.3 4.6 78 1.6 SSW 9 13 5 7 1024.5 - 0.0
18/09:00pm 8.1 5.1 4.3 77 1.7 SSW 9 13 5 7 1024.5 1024.6 0.0
18/08:30pm 8.1 4.8 4.5 78 1.6 SSW 11 13 6 7 1024.3 - 0.0
18/08:00pm 8.2 4.9 4.6 78 1.6 SSW 11 13 6 7 1024.2 1024.3 0.0
18/07:30pm 8.1 4.8 4.5 78 1.6 SSW 11 13 6 7 1023.9 - 0.0
18/07:00pm 8.3 5.0 4.5 77 1.7 SSW 11 15 6 8 1023.9 1024.0 0.0
18/06:30pm 8.4 5.1 4.4 76 1.8 SW 11 13 6 7 1023.8 - 0.0
18/06:00pm 8.8 5.5 4.6 75 1.8 SW 11 13 6 7 1023.6 1023.7 0.0
18/05:30pm 9.9 6.4 5.3 73 2.1 SW 13 17 7 9 1023.1 - 0.0
18/05:00pm 10.7 7.6 5.5 70 2.4 SW 11 17 6 9 1022.9 1023.0 0.0
18/04:30pm 11.5 8.5 5.8 68 2.7 SW 11 19 6 10 1022.9 - 0.0
18/04:00pm 12.1 9.1 6.2 67 2.8 WSW 11 19 6 10 1023.0 1023.1 0.0
18/03:30pm 12.2 8.9 6.3 67 2.8 SW 13 19 7 10 1023.0 - 0.0
18/03:00pm 12.8 9.8 7.5 70 2.6 WSW 13 15 7 8 1023.0 1023.1 0.0
18/02:30pm 12.1 8.2 7.0 71 2.4 W 17 20 9 11 1023.0 - 0.0
18/02:00pm 12.2 8.5 6.5 68 2.7 WSW 15 20 8 11 1023.1 1023.2 0.0
18/01:30pm 12.7 9.8 6.7 67 2.9 WSW 11 17 6 9 1023.3 - 0.0
18/01:00pm 12.3 9.0 6.6 68 2.7 WSW 13 17 7 9 1023.4 1023.5 0.0
18/12:30pm 12.0 8.7 6.3 68 2.7 W 13 15 7 8 1023.5 - 0.0
18/12:00pm 11.6 8.9 5.7 67 2.7 W 9 13 5 7 1023.9 1024.0 0.0
18/11:30am 11.4 8.8 6.1 70 2.5 W 9 11 5 6 1024.2 - 0.0
18/11:00am 10.2 7.0 5.2 71 2.3 W 11 17 6 9 1024.4 1024.5 0.0
18/10:30am 11.0 8.2 5.1 67 2.7 NW 9 11 5 6 1024.4 - 0.0
18/10:00am 10.9 7.3 4.8 66 2.7 NNE 13 17 7 9 1024.5 1024.6 0.0
18/09:30am 9.7 6.0 4.5 70 2.3 NNE 13 17 7 9 1024.5 - 0.0
18/09:00am 8.3 4.1 3.8 73 1.9 NNE 15 20 8 11 1024.4 1024.5 0.0
18/08:30am 7.2 2.5 3.3 76 1.6 NNE 17 20 9 11 1024.3 - 0.0
18/08:00am 6.4 1.2 2.7 77 1.5 NNE 19 20 10 11 1024.1 1024.2 0.0
18/07:30am 5.3 1.2 2.0 79 1.3 NNE 13 15 7 8 1024.0 - 0.0
18/07:00am 5.5 1.0 2.2 79 1.3 NE 15 17 8 9 1023.7 1023.8 0.0
18/06:30am 5.6 1.1 2.3 79 1.3 NNE 15 19 8 10 1023.4 - 0.0
18/06:00am 6.0 2.3 2.6 79 1.4 N 11 11 6 6 1023.0 1023.1 0.0
18/05:30am 6.0 2.7 2.5 78 1.4 N 9 11 5 6 1022.8 - 0.0
18/05:00am 6.1 2.0 2.4 77 1.5 N 13 15 7 8 1022.8 1022.9 0.0
18/04:30am 6.9 2.9 3.0 76 1.6 NNE 13 28 7 15 1022.8 - 0.0
18/04:00am 6.4 1.3 2.9 78 1.4 NNE 19 24 10 13 1022.6 1022.7 0.0
18/03:30am 6.5 1.2 2.8 77 1.5 NNE 20 26 11 14 1022.7 - 0.0
18/03:00am 6.6 1.3 2.9 77 1.5 NNE 20 26 11 14 1022.8 1022.9 0.0
18/02:30am 6.5 1.4 2.8 77 1.5 NNE 19 24 10 13 1022.9 - 0.0
18/02:00am 6.7 1.4 2.8 76 1.6 NNE 20 26 11 14 1023.0 1023.1 0.0
18/01:30am 6.9 1.8 2.8 75 1.7 NNE 19 22 10 12 1022.9 - 0.0
18/01:00am 7.3 2.5 2.8 73 1.9 NNE 17 20 9 11 1022.9 1023.0 0.0
18/12:30am 7.6 2.9 2.9 72 2.0 NNE 17 17 9 9 1022.9 - 0.0
18/12:00am 7.2 2.8 2.5 72 1.9 NNE 15 17 8 9 1022.8 1022.9 0.0
 
Date/Time
EST
Temp
°C
App
Temp
°C
Dew
Point
Rel
Hum
%
Delta-T
°C
Wind Press
QNH
hPa
Press
MSL
hPa
Rain
since 9 am
mm
Dir
 
Spd
km/h
Gust
km/h
Spd
kts
Gust
kts
17/11:30pm 7.7 3.7 2.6 70 2.1 NNE 13 15 7 8 1022.5 - 0.0
17/11:00pm 8.2 4.6 2.7 68 2.3 NNE 11 13 6 7 1022.5 1022.6 0.0
17/10:30pm 8.8 5.2 3.0 67 2.5 NNW 11 17 6 9 1022.7 - 0.0
17/10:00pm 8.0 4.4 3.1 71 2.1 N 11 13 6 7 1022.9 1023.0 0.0
17/09:30pm 8.1 4.9 3.0 70 2.2 NNE 9 13 5 7 1023.0 - 0.0
17/09:00pm 8.7 6.0 2.7 66 2.5 N 6 7 3 4 1023.2 1023.3 0.0

Other Formats:

Comma delimited format used in spreadsheet applications
http://www.bom.gov.au/fwo/IDT60801/IDT60801.95961.axf

JavaScript Object Notation format (JSON) in row-major order
http://www.bom.gov.au/fwo/IDT60801/IDT60801.95961.json